Time;durP1;ratioP1;P1;durP2;ratioP2;P2;SDS_P1;SDS_P2;PMS_P1;PMS_P2;Temp;Humidity;BMP_temperature;BMP_pressure;BME280_temperature;BME280_humidity;BME280_pressure;Samples;Min_cycle;Max_cycle;Signal;HPM_P1;HPM_P2
2024/03/14 00:00:18;;;;;;;106.30;47.60;;;;;;;;;;106961;1254;62139;-80
2024/03/14 00:03:05;;;;;;;113.00;56.20;;;;;;;;;;106952;1260;61992;-84
2024/03/14 00:05:32;;;;;;;89.40;43.90;;;;;;;;;;107049;1253;62051;-85
2024/03/14 00:08:00;;;;;;;91.30;45.60;;;;;;;;;;107076;1254;62038;-84
2024/03/14 00:10:27;;;;;;;95.80;45.60;;;;;;;;;;107936;1254;62097;-81
2024/03/14 00:12:53;;;;;;;99.60;46.90;;;;;;;;;;106989;1257;62041;-81
2024/03/14 00:15:20;;;;;;;106.80;51.40;;;;;;;;;;107020;1257;62122;-84
2024/03/14 00:17:46;;;;;;;86.70;42.30;;;;;;;;;;107055;1255;62029;-85
2024/03/14 00:20:13;;;;;;;86.90;40.60;;;;;;;;;;107065;1257;62060;-84
2024/03/14 00:22:39;;;;;;;80.10;39.70;;;;;;;;;;107078;1254;62036;-84
2024/03/14 00:25:09;;;;;;;91.10;42.30;;;;;;;;;;107064;1254;62119;-83
2024/03/14 00:27:39;;;;;;;82.10;37.70;;;;;;;;;;107084;1254;59827;-84
2024/03/14 00:30:08;;;;;;;84.10;40.20;;;;;;;;;;107049;1254;62047;-82
2024/03/14 00:32:35;;;;;;;86.00;40.20;;;;;;;;;;107000;1257;62740;-79
2024/03/14 00:35:04;;;;;;;92.70;43.00;;;;;;;;;;107151;1251;61923;-83
2024/03/14 00:37:30;;;;;;;;;;;;;;;;;;107234;1251;62065;-79
2024/03/14 00:39:56;;;;;;;77.00;36.30;;;;;;;;;;107170;1254;62155;-79
2024/03/14 00:42:26;;;;;;;83.50;37.20;;;;;;;;;;107257;1257;62162;-78
2024/03/14 00:44:53;;;;;;;83.30;38.10;;;;;;;;;;107284;1257;62412;-83
2024/03/14 00:47:20;;;;;;;79.50;35.80;;;;;;;;;;107154;1251;62040;-79
2024/03/14 00:49:47;;;;;;;81.60;37.50;;;;;;;;;;107129;1256;61938;-79
2024/03/14 00:52:13;;;;;;;74.60;37.10;;;;;;;;;;107117;1251;62077;-81
2024/03/14 00:54:40;;;;;;;77.70;35.60;;;;;;;;;;107541;1254;61994;-83
2024/03/14 00:57:06;;;;;;;75.70;37.00;;;;;;;;;;107161;1254;61919;-79
2024/03/14 00:59:33;;;;;;;72.90;34.30;;;;;;;;;;107148;1257;60529;-83
2024/03/14 01:01:59;;;;;;;75.30;34.00;;;;;;;;;;106891;1254;63161;-79
2024/03/14 01:04:27;;;;;;;69.80;35.60;;;;;;;;;;106894;1253;62105;-79
2024/03/14 01:06:54;;;;;;;70.80;35.10;;;;;;;;;;106560;1257;61903;-79
2024/03/14 01:09:24;;;;;;;72.90;34.40;;;;;;;;;;106443;1256;62486;-82
2024/03/14 01:11:52;;;;;;;94.60;42.00;;;;;;;;;;107065;1255;62060;-78
2024/03/14 01:14:20;;;;;;;94.00;41.50;;;;;;;;;;106483;1256;62033;-78
2024/03/14 01:16:49;;;;;;;76.00;39.40;;;;;;;;;;106300;1254;63130;-78
2024/03/14 01:19:16;;;;;;;82.10;41.40;;;;;;;;;;106287;1255;62163;-82
2024/03/14 01:21:43;;;;;;;65.90;31.10;;;;;;;;;;106496;1254;63555;-82
2024/03/14 01:24:13;;;;;;;70.60;35.60;;;;;;;;;;106448;1257;62083;-82
2024/03/14 01:26:41;;;;;;;72.30;36.40;;;;;;;;;;107106;1255;62068;-78
2024/03/14 01:29:08;;;;;;;67.20;33.50;;;;;;;;;;106330;1257;62133;-82
2024/03/14 01:31:34;;;;;;;64.90;31.30;;;;;;;;;;106446;1254;62023;-78
2024/03/14 01:34:01;;;;;;;71.20;32.60;;;;;;;;;;106510;1251;61976;-78
2024/03/14 01:36:28;;;;;;;66.40;32.20;;;;;;;;;;106744;1251;62112;-83
2024/03/14 01:38:55;;;;;;;71.60;33.30;;;;;;;;;;107338;1251;62076;-83
2024/03/14 01:41:21;;;;;;;86.50;37.20;;;;;;;;;;107178;1256;61958;-83
2024/03/14 01:43:57;;;;;;;76.30;34.50;;;;;;;;;;107278;1251;61942;-80
2024/03/14 01:46:25;;;;;;;83.70;36.00;;;;;;;;;;107170;1256;62923;-81
2024/03/14 01:48:52;;;;;;;81.50;34.60;;;;;;;;;;108784;1251;62015;-80
2024/03/14 01:51:18;;;;;;;92.00;39.70;;;;;;;;;;107070;1252;62046;-84
2024/03/14 01:53:45;;;;;;;86.90;42.30;;;;;;;;;;107069;1251;62062;-80
2024/03/14 01:56:12;;;;;;;97.10;43.50;;;;;;;;;;106472;1254;61905;-79
2024/03/14 01:58:38;;;;;;;78.50;32.40;;;;;;;;;;107064;1256;62412;-78
2024/03/14 02:01:04;;;;;;;86.00;37.20;;;;;;;;;;106512;1257;62746;-79
2024/03/14 02:03:31;;;;;;;91.70;35.40;;;;;;;;;;107022;1257;62044;-79
2024/03/14 02:06:00;;;;;;;84.20;36.00;;;;;;;;;;106872;1253;62120;-80
2024/03/14 02:08:26;;;;;;;;;;;;;;;;;;107045;1254;62021;-83
2024/03/14 02:10:53;;;;;;;63.40;29.20;;;;;;;;;;106990;1255;61441;-83
2024/03/14 02:13:19;;;;;;;68.90;29.70;;;;;;;;;;106927;1259;62750;-79
2024/03/14 02:15:46;;;;;;;68.50;30.60;;;;;;;;;;106985;1256;62062;-84
2024/03/14 02:18:13;;;;;;;67.20;30.80;;;;;;;;;;107080;1254;62090;-79
2024/03/14 02:20:39;;;;;;;70.20;30.50;;;;;;;;;;106459;1253;62034;-83
2024/03/14 02:26:28;;;;;;;75.50;32.20;;;;;;;;;;107100;1255;62042;-83
2024/03/14 02:28:55;;;;;;;67.20;29.80;;;;;;;;;;106930;1254;62110;-83
2024/03/14 02:38:07;;;;;;;73.50;31.80;;;;;;;;;;106427;1256;64208;-79
2024/03/14 02:40:34;;;;;;;71.50;31.10;;;;;;;;;;107047;1254;62004;-80
2024/03/14 02:43:01;;;;;;;78.50;34.40;;;;;;;;;;106954;1253;61954;-80
2024/03/14 02:45:27;;;;;;;79.00;34.20;;;;;;;;;;106455;1254;62053;-84
2024/03/14 02:51:19;;;;;;;73.50;34.50;;;;;;;;;;107121;1254;61843;-84
2024/03/14 02:54:05;;;;;;;76.80;34.90;;;;;;;;;;108405;1254;61814;-84
2024/03/14 02:56:32;;;;;;;77.70;31.80;;;;;;;;;;109443;1253;59901;-81
2024/03/14 02:58:58;;;;;;;63.00;30.60;;;;;;;;;;108765;1254;60122;-80
2024/03/14 03:01:25;;;;;;;76.70;36.20;;;;;;;;;;107090;1254;61902;-80
2024/03/14 03:03:53;;;;;;;81.70;39.20;;;;;;;;;;106989;1254;62460;-80
2024/03/14 03:06:20;;;;;;;81.00;42.00;;;;;;;;;;107079;1254;62025;-80
2024/03/14 03:08:47;;;;;;;78.90;40.40;;;;;;;;;;107064;1256;61932;-83
2024/03/14 03:11:14;;;;;;;78.30;40.10;;;;;;;;;;107100;1254;62037;-84
2024/03/14 03:13:40;;;;;;;88.20;41.10;;;;;;;;;;107143;1253;62143;-83
2024/03/14 03:16:07;;;;;;;66.70;36.20;;;;;;;;;;106955;1254;62015;-80
2024/03/14 03:18:33;;;;;;;68.30;35.20;;;;;;;;;;107047;1253;60493;-84
2024/03/14 03:21:00;;;;;;;62.00;32.40;;;;;;;;;;106876;1253;62175;-79
2024/03/14 03:23:26;;;;;;;80.30;38.00;;;;;;;;;;107038;1253;62159;-79
2024/03/14 03:25:53;;;;;;;73.50;32.30;;;;;;;;;;107051;1254;60010;-78
2024/03/14 03:28:19;;;;;;;58.70;27.10;;;;;;;;;;106482;1255;62265;-81
2024/03/14 03:30:45;;;;;;;67.20;33.50;;;;;;;;;;107006;1256;62157;-79
2024/03/14 03:33:17;;;;;;;65.00;33.80;;;;;;;;;;106322;1252;62095;-83
2024/03/14 03:35:46;;;;;;;70.80;36.20;;;;;;;;;;107090;1251;62158;-83
2024/03/14 03:38:15;;;;;;;70.10;34.90;;;;;;;;;;107119;1251;62113;-82
2024/03/14 03:40:43;;;;;;;71.70;37.10;;;;;;;;;;106455;1251;61990;-78
2024/03/14 03:43:11;;;;;;;73.00;36.50;;;;;;;;;;106524;1251;61983;-82
2024/03/14 03:45:37;;;;;;;71.00;35.30;;;;;;;;;;107120;1251;62027;-78
2024/03/14 03:48:05;;;;;;;68.30;33.70;;;;;;;;;;106529;1251;62184;-83
2024/03/14 03:50:31;;;;;;;71.80;33.40;;;;;;;;;;107044;1251;62015;-83
2024/03/14 03:52:58;;;;;;;64.30;31.10;;;;;;;;;;107077;1256;60622;-78
2024/03/14 03:55:25;;;;;;;64.70;33.30;;;;;;;;;;106522;1256;62158;-78
2024/03/14 03:57:51;;;;;;;73.10;34.80;;;;;;;;;;106418;1257;62153;-79
2024/03/14 04:00:33;;;;;;;69.80;30.00;;;;;;;;;;106258;1254;62116;-79
2024/03/14 04:02:59;;;;;;;77.80;34.40;;;;;;;;;;106305;1254;62066;-83
2024/03/14 04:05:26;;;;;;;63.00;30.10;;;;;;;;;;106912;1254;62810;-82
2024/03/14 04:07:53;;;;;;;54.70;27.90;;;;;;;;;;107102;1254;62008;-79
2024/03/14 04:10:23;;;;;;;46.70;24.60;;;;;;;;;;106450;1254;62075;-79
2024/03/14 04:12:51;;;;;;;53.60;26.20;;;;;;;;;;107114;1254;63231;-78
2024/03/14 04:15:18;;;;;;;54.20;26.60;;;;;;;;;;106485;1253;62120;-84
2024/03/14 04:17:45;;;;;;;68.50;30.50;;;;;;;;;;106918;1253;62978;-79
2024/03/14 04:20:12;;;;;;;71.10;36.70;;;;;;;;;;106309;1254;62104;-79
2024/03/14 04:22:40;;;;;;;62.80;30.50;;;;;;;;;;106459;1254;62139;-78
2024/03/14 04:25:10;;;;;;;59.70;28.70;;;;;;;;;;106313;1254;62031;-79
2024/03/14 04:27:38;;;;;;;57.80;26.20;;;;;;;;;;106507;1254;62031;-83
2024/03/14 04:30:06;;;;;;;56.10;28.60;;;;;;;;;;109490;1252;61631;-84
2024/03/14 04:32:33;;;;;;;54.90;27.70;;;;;;;;;;108430;1253;62138;-83
2024/03/14 04:34:59;;;;;;;64.30;29.30;;;;;;;;;;107067;1254;61981;-83
2024/03/14 04:37:25;;;;;;;65.30;34.40;;;;;;;;;;107047;1254;62530;-78
2024/03/14 04:39:52;;;;;;;83.60;36.70;;;;;;;;;;106534;1254;62063;-84
2024/03/14 04:42:20;;;;;;;73.70;32.90;;;;;;;;;;106944;1254;62059;-83
2024/03/14 04:44:46;;;;;;;75.80;37.40;;;;;;;;;;107145;1253;62054;-85
2024/03/14 04:47:13;;;;;;;63.30;29.30;;;;;;;;;;107048;1255;62159;-78
2024/03/14 04:49:40;;;;;;;64.50;34.60;;;;;;;;;;106540;1252;62127;-79
2024/03/14 04:52:06;;;;;;;60.60;29.10;;;;;;;;;;107841;1254;62019;-84
2024/03/14 04:54:33;;;;;;;60.70;27.90;;;;;;;;;;107863;1253;61129;-83
2024/03/14 04:57:02;;;;;;;55.90;27.00;;;;;;;;;;107645;1253;62089;-79
2024/03/14 04:59:29;;;;;;;51.20;25.20;;;;;;;;;;108338;1252;62018;-79
2024/03/14 05:01:56;;;;;;;69.00;36.60;;;;;;;;;;109432;1252;59869;-84
2024/03/14 05:04:22;;;;;;;58.80;28.80;;;;;;;;;;109494;1253;59581;-79
2024/03/14 05:06:49;;;;;;;55.10;25.30;;;;;;;;;;109452;1253;60292;-83
2024/03/14 05:09:16;;;;;;;51.40;25.40;;;;;;;;;;108968;1253;62389;-79
2024/03/14 05:11:42;;;;;;;52.70;25.20;;;;;;;;;;106472;1256;62102;-83
2024/03/14 05:14:09;;;;;;;55.20;26.00;;;;;;;;;;107098;1253;62060;-83
2024/03/14 05:16:36;;;;;;;67.90;30.60;;;;;;;;;;106461;1255;61958;-83
2024/03/14 05:19:04;;;;;;;68.80;28.70;;;;;;;;;;106876;1254;61993;-81
2024/03/14 05:21:31;;;;;;;65.90;30.70;;;;;;;;;;107131;1254;62089;-79
2024/03/14 05:23:58;;;;;;;61.30;29.50;;;;;;;;;;106429;1254;62109;-84
2024/03/14 05:26:27;;;;;;;56.50;25.90;;;;;;;;;;107143;1253;62070;-79
2024/03/14 05:28:54;;;;;;;;;;;;;;;;;;107086;1253;61951;-84
2024/03/14 05:31:21;;;;;;;70.30;29.30;;;;;;;;;;107099;1253;62702;-83
2024/03/14 05:33:47;;;;;;;77.80;32.80;;;;;;;;;;107088;1251;62054;-82
2024/03/14 05:36:14;;;;;;;74.60;28.00;;;;;;;;;;107028;1256;61958;-78
2024/03/14 05:38:41;;;;;;;67.30;30.20;;;;;;;;;;106484;1251;62034;-83
2024/03/14 05:41:08;;;;;;;63.80;28.40;;;;;;;;;;107204;1251;62035;-79
2024/03/14 05:43:35;;;;;;;59.80;25.20;;;;;;;;;;106526;1256;62068;-78
2024/03/14 05:46:04;;;;;;;67.10;27.80;;;;;;;;;;106378;1251;235578;-79
2024/03/14 05:48:31;;;;;;;68.00;30.80;;;;;;;;;;106559;1251;62153;-79
2024/03/14 05:50:57;;;;;;;63.50;29.00;;;;;;;;;;106504;1251;62028;-79
2024/03/14 05:53:28;;;;;;;64.90;31.70;;;;;;;;;;107150;1253;62047;-79
2024/03/14 05:55:55;;;;;;;63.30;32.50;;;;;;;;;;106515;1253;63673;-83
2024/03/14 05:58:22;;;;;;;64.20;29.90;;;;;;;;;;106826;1257;62140;-79
2024/03/14 06:00:48;;;;;;;67.90;30.40;;;;;;;;;;106315;1257;62062;-83
2024/03/14 06:03:14;;;;;;;77.90;34.30;;;;;;;;;;107038;1253;61946;-83
2024/03/14 06:05:41;;;;;;;80.70;36.50;;;;;;;;;;107016;1252;61984;-83
2024/03/14 06:08:07;;;;;;;71.20;32.10;;;;;;;;;;106980;1253;62008;-79
2024/03/14 06:10:34;;;;;;;64.80;31.70;;;;;;;;;;106555;1254;62029;-83
2024/03/14 06:13:00;;;;;;;64.80;31.40;;;;;;;;;;106322;1254;62135;-83
2024/03/14 06:15:27;;;;;;;59.90;29.60;;;;;;;;;;107067;1252;62143;-78
2024/03/14 06:17:54;;;;;;;67.60;32.70;;;;;;;;;;106527;1256;62088;-83
2024/03/14 06:20:22;;;;;;;59.60;29.80;;;;;;;;;;106848;1253;62113;-79
2024/03/14 06:22:49;;;;;;;61.50;27.60;;;;;;;;;;106317;1253;62230;-83
2024/03/14 06:25:16;;;;;;;62.80;30.10;;;;;;;;;;106271;1253;62025;-83
2024/03/14 06:27:42;;;;;;;172.80;60.40;;;;;;;;;;106864;1258;62136;-78
2024/03/14 06:30:09;;;;;;;79.00;35.30;;;;;;;;;;106493;1256;62369;-83
2024/03/14 06:32:39;;;;;;;65.20;29.80;;;;;;;;;;106888;1254;62569;-83
2024/03/14 06:35:09;;;;;;;64.70;30.00;;;;;;;;;;107055;1252;62108;-78
2024/03/14 06:37:35;;;;;;;59.90;30.00;;;;;;;;;;106480;1254;62067;-78
2024/03/14 06:40:05;;;;;;;52.80;27.90;;;;;;;;;;106271;1258;63391;-78
2024/03/14 06:42:32;;;;;;;59.30;27.40;;;;;;;;;;106395;1253;62167;-78
2024/03/14 06:45:03;;;;;;;54.70;24.10;;;;;;;;;;106300;1258;62714;-83
2024/03/14 06:47:29;;;;;;;52.80;27.40;;;;;;;;;;106936;1253;62290;-78
2024/03/14 06:49:57;;;;;;;60.00;30.00;;;;;;;;;;106293;1259;62098;-83
2024/03/14 06:52:23;;;;;;;63.90;28.40;;;;;;;;;;109431;1252;59837;-78
2024/03/14 06:54:50;;;;;;;56.90;29.40;;;;;;;;;;109518;1252;59840;-78
2024/03/14 06:57:16;;;;;;;59.20;27.90;;;;;;;;;;109213;1251;62779;-78
2024/03/14 06:59:48;;;;;;;61.40;29.80;;;;;;;;;;106579;1254;62012;-78
2024/03/14 07:02:18;;;;;;;54.30;27.90;;;;;;;;;;106578;1253;62126;-79
2024/03/14 07:04:44;;;;;;;56.40;28.10;;;;;;;;;;106983;1254;62098;-84
2024/03/14 07:07:11;;;;;;;58.60;29.30;;;;;;;;;;107235;1253;62038;-83
2024/03/14 07:09:37;;;;;;;51.00;28.00;;;;;;;;;;107090;1253;62698;-82
2024/03/14 07:12:06;;;;;;;54.60;28.30;;;;;;;;;;107201;1256;62073;-83
2024/03/14 07:14:33;;;;;;;54.30;26.20;;;;;;;;;;107151;1253;62060;-83
2024/03/14 07:17:00;;;;;;;88.00;47.50;;;;;;;;;;107254;1252;62083;-78
2024/03/14 07:19:27;;;;;;;52.70;30.50;;;;;;;;;;107189;1253;62096;-83
2024/03/14 07:21:53;;;;;;;54.40;28.50;;;;;;;;;;107161;1256;63672;-82
2024/03/14 07:24:24;;;;;;;49.50;28.00;;;;;;;;;;107299;1253;62153;-83
2024/03/14 07:26:51;;;;;;;54.60;28.40;;;;;;;;;;107227;1252;61955;-79
2024/03/14 07:29:18;;;;;;;51.50;28.40;;;;;;;;;;107474;1253;61893;-78
2024/03/14 07:31:47;;;;;;;62.40;30.80;;;;;;;;;;106632;1254;62501;-83
2024/03/14 07:34:15;;;;;;;56.00;29.20;;;;;;;;;;107247;1253;63265;-83
2024/03/14 07:36:42;;;;;;;64.00;32.70;;;;;;;;;;107257;1253;62121;-83
2024/03/14 07:39:14;;;;;;;93.20;52.30;;;;;;;;;;107397;1253;62089;-78
2024/03/14 07:41:41;;;;;;;76.70;47.70;;;;;;;;;;106434;1258;62131;-78
2024/03/14 07:44:07;;;;;;;61.20;31.40;;;;;;;;;;106665;1253;62146;-84
2024/03/14 07:46:34;;;;;;;59.50;32.20;;;;;;;;;;107278;1253;62063;-79
2024/03/14 07:49:00;;;;;;;53.10;28.90;;;;;;;;;;106709;1257;62003;-84
2024/03/14 07:51:26;;;;;;;52.50;27.70;;;;;;;;;;107246;1251;62070;-84
2024/03/14 07:53:53;;;;;;;53.70;29.00;;;;;;;;;;107462;1253;61982;-84
2024/03/14 07:56:21;;;;;;;54.40;28.10;;;;;;;;;;107344;1253;62565;-79
2024/03/14 07:58:51;;;;;;;69.20;32.20;;;;;;;;;;109307;1253;61351;-85
2024/03/14 08:01:17;;;;;;;52.20;30.40;;;;;;;;;;109257;1253;59795;-79
2024/03/14 08:03:45;;;;;;;55.80;29.00;;;;;;;;;;109333;1253;59767;-85
2024/03/14 08:06:12;;;;;;;47.30;29.10;;;;;;;;;;109403;1253;59773;-79
2024/03/14 08:08:38;;;;;;;52.80;25.20;;;;;;;;;;109383;1251;59721;-85
2024/03/14 08:11:06;;;;;;;50.70;27.60;;;;;;;;;;109321;1252;61528;-81
2024/03/14 08:13:33;;;;;;;76.70;39.00;;;;;;;;;;109395;1251;59975;-83
2024/03/14 08:16:08;;;;;;;62.00;38.20;;;;;;;;;;109210;1253;59731;-84
2024/03/14 08:18:38;;;;;;;49.20;30.50;;;;;;;;;;109153;1252;60586;-84
2024/03/14 08:21:07;;;;;;;118.20;64.40;;;;;;;;;;109274;1253;60103;-79
2024/03/14 08:23:34;;;;;;;83.50;46.30;;;;;;;;;;109439;1253;62700;-79
2024/03/14 08:26:00;;;;;;;54.70;33.60;;;;;;;;;;109409;1252;59782;-84
2024/03/14 08:28:27;;;;;;;61.60;35.00;;;;;;;;;;109276;1253;59964;-83
2024/03/14 08:30:54;;;;;;;62.10;33.40;;;;;;;;;;109452;1253;59756;-84
2024/03/14 08:33:22;;;;;;;47.30;28.60;;;;;;;;;;109359;1251;59947;-84
2024/03/14 08:35:49;;;;;;;55.70;32.50;;;;;;;;;;109441;1253;62766;-84
2024/03/14 08:38:15;;;;;;;49.10;29.20;;;;;;;;;;109334;1251;60199;-84
2024/03/14 08:40:42;;;;;;;52.40;28.40;;;;;;;;;;109458;1253;59616;-79
2024/03/14 08:43:11;;;;;;;67.20;30.90;;;;;;;;;;109414;1252;59674;-84
2024/03/14 08:45:37;;;;;;;48.30;28.60;;;;;;;;;;108316;1253;62313;-83
2024/03/14 08:48:07;;;;;;;79.10;47.70;;;;;;;;;;107322;1253;62606;-83
2024/03/14 08:50:34;;;;;;;57.10;36.70;;;;;;;;;;107328;1253;62022;-78
2024/03/14 08:53:01;;;;;;;55.50;32.60;;;;;;;;;;106641;1256;62062;-84
2024/03/14 08:55:33;;;;;;;55.40;34.10;;;;;;;;;;107425;1252;63895;-78
2024/03/14 08:58:02;;;;;;;59.50;34.30;;;;;;;;;;106618;1252;63133;-78
2024/03/14 09:00:29;;;;;;;71.80;40.30;;;;;;;;;;106674;1253;62028;-78
2024/03/14 09:02:59;;;;;;;102.50;49.80;;;;;;;;;;106769;1253;62031;-78
2024/03/14 09:05:26;;;;;;;70.40;36.00;;;;;;;;;;106841;1253;62028;-84
2024/03/14 09:07:54;;;;;;;54.00;30.50;;;;;;;;;;107142;1254;63350;-83
2024/03/14 09:10:25;;;;;;;113.50;51.40;;;;;;;;;;107529;1253;62072;-79
2024/03/14 09:12:52;;;;;;;61.30;33.00;;;;;;;;;;106778;1254;62554;-84
2024/03/14 09:15:20;;;;;;;141.50;62.50;;;;;;;;;;107151;1252;63061;-83
2024/03/14 09:17:47;;;;;;;82.50;42.00;;;;;;;;;;107333;1254;61924;-78
2024/03/14 09:20:16;;;;;;;240.00;95.20;;;;;;;;;;106788;1252;61894;-83
2024/03/14 09:22:43;;;;;;;125.10;63.60;;;;;;;;;;107105;1252;62038;-78
2024/03/14 09:25:12;;;;;;;73.20;35.30;;;;;;;;;;106717;1251;62035;-84
2024/03/14 09:27:39;;;;;;;49.40;30.00;;;;;;;;;;109404;1251;59724;-78
2024/03/14 09:30:08;;;;;;;48.10;29.30;;;;;;;;;;109387;1251;59699;-79
2024/03/14 09:32:35;;;;;;;41.20;25.20;;;;;;;;;;109337;1252;60321;-83
2024/03/14 09:35:05;;;;;;;53.00;31.00;;;;;;;;;;107451;1254;62085;-78
2024/03/14 09:37:32;;;;;;;43.50;28.20;;;;;;;;;;106732;1253;63094;-84
2024/03/14 09:39:58;;;;;;;42.70;25.50;;;;;;;;;;107644;1252;63060;-78
2024/03/14 09:42:28;;;;;;;41.10;24.90;;;;;;;;;;106401;1253;62157;-79
2024/03/14 09:44:54;;;;;;;55.10;29.20;;;;;;;;;;106458;1251;62306;-78
2024/03/14 09:47:39;;;;;;;229.90;95.20;;;;;;;;;;106659;1253;62633;-78
2024/03/14 09:50:07;;;;;;;61.20;32.20;;;;;;;;;;107520;1253;61968;-83
2024/03/14 09:52:36;;;;;;;64.80;35.40;;;;;;;;;;107396;1251;62162;-84
2024/03/14 09:55:02;;;;;;;53.60;32.10;;;;;;;;;;107598;1253;62136;-84
2024/03/14 09:57:29;;;;;;;69.20;38.20;;;;;;;;;;107587;1253;61955;-83
2024/03/14 09:59:57;;;;;;;47.00;29.60;;;;;;;;;;107385;1252;61843;-84
2024/03/14 10:02:25;;;;;;;42.10;25.50;;;;;;;;;;107361;1254;62119;-78
2024/03/14 10:04:51;;;;;;;41.30;25.60;;;;;;;;;;107171;1253;62099;-78
2024/03/14 10:07:19;;;;;;;44.70;26.00;;;;;;;;;;107062;1253;62023;-79
2024/03/14 10:09:45;;;;;;;44.60;25.30;;;;;;;;;;109352;1256;60068;-85
2024/03/14 10:12:12;;;;;;;40.90;25.60;;;;;;;;;;109408;1252;60090;-85
2024/03/14 10:14:40;;;;;;;42.00;26.00;;;;;;;;;;108518;1253;62305;-84
2024/03/14 10:17:07;;;;;;;39.20;25.20;;;;;;;;;;107869;1251;61963;-79
2024/03/14 10:19:35;;;;;;;40.20;25.10;;;;;;;;;;109356;1251;59700;-79
2024/03/14 10:22:03;;;;;;;39.00;25.70;;;;;;;;;;109264;1252;59956;-84
2024/03/14 10:24:30;;;;;;;38.60;24.10;;;;;;;;;;109254;1253;59596;-79
2024/03/14 10:26:56;;;;;;;50.90;23.50;;;;;;;;;;109371;1253;62743;-85
2024/03/14 10:29:29;;;;;;;41.50;25.30;;;;;;;;;;109408;1252;60147;-79
2024/03/14 10:31:56;;;;;;;30.30;19.80;;;;;;;;;;108024;1251;60136;-83
2024/03/14 10:34:22;;;;;;;37.90;20.70;;;;;;;;;;107317;1253;62482;-84
2024/03/14 10:36:52;;;;;;;29.20;18.20;;;;;;;;;;107549;1251;61933;-84
2024/03/14 10:39:20;;;;;;;29.70;20.20;;;;;;;;;;107472;1255;62726;-84
2024/03/14 10:41:50;;;;;;;31.40;16.20;;;;;;;;;;107398;1253;60467;-84
2024/03/14 10:44:21;;;;;;;33.60;18.70;;;;;;;;;;107386;1252;62136;-78
2024/03/14 10:46:51;;;;;;;33.80;20.80;;;;;;;;;;106627;1253;62151;-78
2024/03/14 10:49:22;;;;;;;26.20;16.40;;;;;;;;;;106715;1256;61964;-67
2024/03/14 10:51:49;;;;;;;31.00;17.30;;;;;;;;;;106519;1255;63656;-79
2024/03/14 10:54:21;;;;;;;35.60;20.40;;;;;;;;;;107410;1253;62028;-79
2024/03/14 10:56:49;;;;;;;32.10;18.70;;;;;;;;;;106591;1253;62198;-85
2024/03/14 10:59:20;;;;;;;29.50;17.50;;;;;;;;;;107505;1253;61904;-78
2024/03/14 11:01:54;;;;;;;30.10;18.90;;;;;;;;;;107141;1252;62002;-79
2024/03/14 11:04:21;;;;;;;30.70;17.90;;;;;;;;;;106458;1258;64961;-79
2024/03/14 11:06:47;;;;;;;27.30;18.40;;;;;;;;;;106457;1256;62534;-80
2024/03/14 11:09:15;;;;;;;27.90;19.00;;;;;;;;;;106761;1255;62054;-84
2024/03/14 11:11:41;;;;;;;34.10;18.70;;;;;;;;;;107129;1259;61946;-84
2024/03/14 11:14:11;;;;;;;31.60;18.30;;;;;;;;;;107342;1254;61992;-79
2024/03/14 11:16:39;;;;;;;29.10;18.50;;;;;;;;;;106623;1251;62056;-85
2024/03/14 11:19:06;;;;;;;26.80;17.90;;;;;;;;;;107418;1251;62042;-78
2024/03/14 11:21:34;;;;;;;26.60;16.60;;;;;;;;;;106593;1256;62169;-84
2024/03/14 11:24:01;;;;;;;28.50;17.30;;;;;;;;;;107254;1253;62399;-84
2024/03/14 11:26:29;;;;;;;30.10;19.80;;;;;;;;;;107365;1253;61066;-85
2024/03/14 11:29:02;;;;;;;26.10;16.30;;;;;;;;;;107432;1253;62019;-85
2024/03/14 11:31:45;;;;;;;28.50;16.30;;;;;;;;;;107408;1252;61964;-84
2024/03/14 11:34:14;;;;;;;27.30;15.90;;;;;;;;;;107291;1253;62123;-84
2024/03/14 11:36:40;;;;;;;24.20;15.50;;;;;;;;;;108037;1251;62735;-79
2024/03/14 11:39:16;;;;;;;28.50;17.20;;;;;;;;;;107162;1258;62205;-84
2024/03/14 11:41:43;;;;;;;31.80;19.20;;;;;;;;;;107467;1253;62798;-79
2024/03/14 11:44:17;;;;;;;30.00;18.20;;;;;;;;;;107380;1256;63177;-84
2024/03/14 11:46:48;;;;;;;35.20;18.60;;;;;;;;;;107116;1258;62232;-84
2024/03/14 11:49:16;;;;;;;50.20;20.00;;;;;;;;;;109383;1251;59751;-80
2024/03/14 11:51:44;;;;;;;26.80;17.00;;;;;;;;;;109480;1251;59657;-85
2024/03/14 11:54:10;;;;;;;31.00;17.40;;;;;;;;;;109398;1253;62674;-80
2024/03/14 11:56:39;;;;;;;34.00;21.30;;;;;;;;;;109293;1253;59757;-79
2024/03/14 11:59:06;;;;;;;32.60;19.10;;;;;;;;;;107370;1253;62005;-79
2024/03/14 12:01:37;;;;;;;32.70;17.50;;;;;;;;;;109408;1251;59838;-80
2024/03/14 12:04:04;;;;;;;31.20;18.30;;;;;;;;;;109338;1252;59781;-80
2024/03/14 12:06:31;;;;;;;25.90;15.60;;;;;;;;;;107319;1253;62433;-80
2024/03/14 12:08:57;;;;;;;35.10;18.00;;;;;;;;;;107388;1253;60382;-79
2024/03/14 12:11:24;;;;;;;31.70;18.20;;;;;;;;;;107534;1253;62031;-79
2024/03/14 12:13:52;;;;;;;36.60;19.50;;;;;;;;;;106624;1253;62092;-79
2024/03/14 12:16:19;;;;;;;32.00;17.10;;;;;;;;;;106569;1253;62077;-79
2024/03/14 12:18:52;;;;;;;39.30;19.20;;;;;;;;;;107449;1256;62548;-80
2024/03/14 12:21:19;;;;;;;31.00;18.90;;;;;;;;;;106680;1251;62065;-84
2024/03/14 12:23:55;;;;;;;47.90;20.00;;;;;;;;;;107303;1254;62553;-79
2024/03/14 12:26:22;;;;;;;35.50;21.20;;;;;;;;;;106301;1257;62031;-84
2024/03/14 12:28:48;;;;;;;32.40;18.40;;;;;;;;;;107150;1253;61952;-79
2024/03/14 12:31:17;;;;;;;32.40;19.40;;;;;;;;;;107120;1253;60681;-84
2024/03/14 12:33:46;;;;;;;27.10;16.30;;;;;;;;;;107129;1253;62128;-79
2024/03/14 12:36:16;;;;;;;29.60;15.20;;;;;;;;;;107281;1254;62016;-79
2024/03/14 12:38:50;;;;;;;32.50;18.30;;;;;;;;;;107309;1251;62026;-84
2024/03/14 12:41:18;;;;;;;28.90;18.10;;;;;;;;;;107326;1252;62012;-79
2024/03/14 12:43:47;;;;;;;35.90;18.90;;;;;;;;;;106702;1256;62876;-84
2024/03/14 12:46:15;;;;;;;28.20;16.90;;;;;;;;;;107300;1258;61945;-79
2024/03/14 12:48:41;;;;;;;31.80;17.40;;;;;;;;;;107458;1253;62056;-84
2024/03/14 12:51:08;;;;;;;37.40;18.80;;;;;;;;;;107208;1253;61888;-79
2024/03/14 12:53:35;;;;;;;33.50;18.90;;;;;;;;;;107206;1254;62046;-79
2024/03/14 12:56:02;;;;;;;46.00;19.90;;;;;;;;;;107386;1256;62827;-84
2024/03/14 12:58:30;;;;;;;34.20;16.40;;;;;;;;;;109343;1253;60062;-85
2024/03/14 13:00:58;;;;;;;33.30;17.50;;;;;;;;;;109234;1252;60049;-85
2024/03/14 13:03:25;;;;;;;29.50;17.00;;;;;;;;;;107218;1253;62101;-80
2024/03/14 13:05:51;;;;;;;34.40;18.00;;;;;;;;;;107170;1254;64581;-85
2024/03/14 13:08:20;;;;;;;27.80;14.80;;;;;;;;;;107171;1253;63411;-79
2024/03/14 13:10:46;;;;;;;25.60;16.30;;;;;;;;;;107306;1253;62012;-80
2024/03/14 13:13:13;;;;;;;27.90;17.30;;;;;;;;;;107206;1252;60761;-79
2024/03/14 13:15:41;;;;;;;27.20;16.30;;;;;;;;;;107253;1251;62418;-84
2024/03/14 13:18:14;;;;;;;30.30;15.60;;;;;;;;;;106999;1253;63280;-80
2024/03/14 13:20:42;;;;;;;31.90;16.80;;;;;;;;;;107309;1254;61947;-80
2024/03/14 13:23:09;;;;;;;;;;;;;;;;;;107091;1256;61845;-83
2024/03/14 13:25:35;;;;;;;27.00;15.50;;;;;;;;;;106990;1253;62417;-85
2024/03/14 13:28:03;;;;;;;38.00;18.20;;;;;;;;;;107773;1252;62146;-84
2024/03/14 13:30:30;;;;;;;38.00;20.30;;;;;;;;;;107859;1253;61957;-79
2024/03/14 13:32:58;;;;;;;36.70;17.10;;;;;;;;;;107021;1255;62397;-79
2024/03/14 13:35:26;;;;;;;23.40;15.30;;;;;;;;;;106597;1253;62194;-84
2024/03/14 13:37:54;;;;;;;32.20;15.40;;;;;;;;;;107181;1253;62011;-83
2024/03/14 13:40:22;;;;;;;27.00;16.30;;;;;;;;;;107263;1253;62008;-79
2024/03/14 13:42:48;;;;;;;33.60;17.10;;;;;;;;;;106940;1254;62127;-79
2024/03/14 13:45:18;;;;;;;30.40;16.50;;;;;;;;;;107138;1253;62011;-79
2024/03/14 13:47:47;;;;;;;27.80;16.30;;;;;;;;;;106897;1254;62051;-79
2024/03/14 13:50:18;;;;;;;30.40;17.50;;;;;;;;;;106535;1255;62130;-83
2024/03/14 13:52:45;;;;;;;27.00;16.30;;;;;;;;;;107244;1253;62054;-84
2024/03/14 13:55:24;;;;;;;32.60;16.10;;;;;;;;;;107115;1258;63054;-79
2024/03/14 13:57:50;;;;;;;;;;;;;;;;;;107169;1254;63213;-78
2024/03/14 14:00:25;;;;;;;28.30;15.80;;;;;;;;;;107178;1253;62121;-78
2024/03/14 14:02:56;;;;;;;28.10;15.80;;;;;;;;;;107064;1256;62048;-79
2024/03/14 14:05:25;;;;;;;32.60;17.90;;;;;;;;;;106404;1254;62092;-83
2024/03/14 14:07:54;;;;;;;38.00;19.90;;;;;;;;;;107581;1255;62021;-83
2024/03/14 14:10:21;;;;;;;36.50;19.10;;;;;;;;;;107223;1256;62691;-83
2024/03/14 14:12:47;;;;;;;44.10;20.90;;;;;;;;;;106906;1252;62094;-84
2024/03/14 14:15:15;;;;;;;31.80;17.60;;;;;;;;;;107050;1253;62066;-79
2024/03/14 14:17:42;;;;;;;33.60;17.40;;;;;;;;;;106342;1253;62162;-79
2024/03/14 14:20:12;;;;;;;26.40;17.10;;;;;;;;;;107107;1256;62044;-84
2024/03/14 14:22:39;;;;;;;30.40;17.10;;;;;;;;;;107032;1255;62794;-84